Time;durP1;ratioP1;P1;durP2;ratioP2;P2;SDS_P1;SDS_P2;PMS_P1;PMS_P2;Temp;Humidity;BMP_temperature;BMP_pressure;BME280_temperature;BME280_humidity;BME280_pressure;Samples;Min_cycle;Max_cycle;Signal;HPM_P1;HPM_P2
2022/06/17 00:00:56;;;;;;;3.00;1.00;;;20.60;61.60;;;;;;5008668;28;20093;-80
2022/06/17 00:03:23;;;;;;;1.45;1.10;;;20.40;61.60;;;;;;5003094;28;20026;-80
2022/06/17 00:05:50;;;;;;;1.98;0.95;;;20.40;61.20;;;;;;5007550;28;20479;-79
2022/06/17 00:08:23;;;;;;;1.00;0.80;;;20.40;60.80;;;;;;4997174;28;20061;-79
2022/06/17 00:10:49;;;;;;;2.47;0.80;;;20.40;60.40;;;;;;5008471;28;20029;-78
2022/06/17 00:13:18;;;;;;;2.15;0.80;;;20.40;60.90;;;;;;5002947;28;20022;-78
2022/06/17 00:15:45;;;;;;;1.35;1.00;;;20.30;61.30;;;;;;5001484;28;20037;-78
2022/06/17 00:18:12;;;;;;;1.67;1.00;;;20.30;61.20;;;;;;4993248;28;20117;-78
2022/06/17 00:20:38;;;;;;;6.10;1.05;;;20.20;61.00;;;;;;5012244;28;20164;-78
2022/06/17 00:23:12;;;;;;;2.17;0.70;;;20.10;60.60;;;;;;5007215;28;20032;-78
2022/06/17 00:25:38;;;;;;;2.40;0.80;;;20.10;60.90;;;;;;4992331;28;20034;-78
2022/06/17 00:28:10;;;;;;;3.53;0.80;;;20.10;60.90;;;;;;4993353;28;20033;-78
2022/06/17 00:30:36;;;;;;;3.97;0.70;;;20.00;62.00;;;;;;5010127;28;20022;-78
2022/06/17 00:33:03;;;;;;;0.90;0.60;;;20.10;62.30;;;;;;4999351;28;20386;-78
2022/06/17 00:35:40;;;;;;;1.02;0.90;;;20.00;62.20;;;;;;5004556;28;20122;-77
2022/06/17 00:38:12;;;;;;;1.02;0.60;;;20.00;62.30;;;;;;4997563;28;20073;-78
2022/06/17 00:40:37;;;;;;;1.23;0.63;;;19.90;62.10;;;;;;5009012;28;20033;-79
2022/06/17 00:43:09;;;;;;;5.22;1.10;;;19.90;62.00;;;;;;4999804;28;20030;-79
2022/06/17 00:45:41;;;;;;;1.88;0.70;;;19.80;62.10;;;;;;5001536;28;20040;-79
2022/06/17 00:48:22;;;;;;;4.00;0.82;;;19.80;62.50;;;;;;5007863;28;20033;-79
2022/06/17 00:51:14;;;;;;;1.25;0.60;;;19.70;62.60;;;;;;4997477;28;20393;-79
2022/06/17 00:54:14;;;;;;;3.58;0.93;;;19.70;62.60;;;;;;4999134;28;20038;-79
2022/06/17 00:56:40;;;;;;;2.05;0.70;;;19.60;62.80;;;;;;4992557;28;20460;-79
2022/06/17 00:59:13;;;;;;;1.13;0.73;;;19.50;63.60;;;;;;4999923;28;20025;-79
2022/06/17 01:01:38;;;;;;;0.80;0.60;;;19.50;64.00;;;;;;5000567;28;20033;-80
2022/06/17 01:04:05;;;;;;;2.10;0.70;;;19.40;63.30;;;;;;5003091;28;20101;-80
2022/06/17 01:06:35;;;;;;;0.80;0.50;;;19.40;63.20;;;;;;5008632;28;20092;-80
2022/06/17 01:11:49;;;;;;;1.45;0.80;;;19.30;63.80;;;;;;4999895;28;20041;-79
2022/06/17 01:14:18;;;;;;;2.70;0.63;;;19.20;64.20;;;;;;5009843;28;20061;-79
2022/06/17 01:16:45;;;;;;;3.35;0.95;;;19.20;64.10;;;;;;4996069;28;20030;-79
2022/06/17 01:19:51;;;;;;;2.03;0.82;;;19.10;64.60;;;;;;5004426;28;20027;-77
2022/06/17 01:22:25;;;;;;;2.30;0.70;;;19.10;65.40;;;;;;5007411;28;20049;-78
2022/06/17 01:24:56;;;;;;;1.20;0.80;;;19.00;65.10;;;;;;4996948;28;20459;-78
2022/06/17 01:27:25;;;;;;;1.03;0.80;;;19.00;65.30;;;;;;5002805;28;20364;-77
2022/06/17 01:29:51;;;;;;;0.93;0.70;;;19.00;65.30;;;;;;5004566;28;20061;-78
2022/06/17 01:32:22;;;;;;;1.02;0.80;;;19.00;65.20;;;;;;4995394;28;20054;-78
2022/06/17 01:34:47;;;;;;;2.55;1.00;;;18.90;65.40;;;;;;5006562;28;20036;-78
2022/06/17 01:37:13;;;;;;;5.13;0.70;;;18.80;65.80;;;;;;4992348;28;20528;-77
2022/06/17 01:39:41;;;;;;;0.82;0.82;;;18.80;66.10;;;;;;4991482;28;20472;-78
2022/06/17 01:42:09;;;;;;;1.13;0.70;;;18.80;66.10;;;;;;5008415;28;20025;-78
2022/06/17 01:44:37;;;;;;;1.92;1.08;;;18.70;66.00;;;;;;4995078;28;20041;-79
2022/06/17 01:47:11;;;;;;;2.05;0.80;;;18.80;66.00;;;;;;5006332;28;20066;-78
2022/06/17 01:49:49;;;;;;;1.73;0.80;;;18.70;65.80;;;;;;5002702;28;20026;-78
2022/06/17 01:52:32;;;;;;;4.10;0.88;;;18.80;65.80;;;;;;4995437;28;20026;-78
2022/06/17 01:55:05;;;;;;;1.50;0.73;;;18.70;65.80;;;;;;5006782;28;20061;-78
2022/06/17 01:57:35;;;;;;;0.98;0.70;;;18.70;66.00;;;;;;5002829;28;20026;-78
2022/06/17 02:00:16;;;;;;;2.83;0.98;;;18.70;66.20;;;;;;4998516;28;20105;-78
2022/06/17 02:02:45;;;;;;;1.75;0.70;;;18.70;66.70;;;;;;4991790;28;20375;-79
2022/06/17 02:05:11;;;;;;;1.50;0.70;;;18.70;66.40;;;;;;5000461;28;20031;-77
2022/06/17 02:07:48;;;;;;;2.35;0.77;;;18.60;66.60;;;;;;4992023;28;20055;-78
2022/06/17 02:10:15;;;;;;;2.10;1.02;;;18.50;67.20;;;;;;5008277;28;20102;-78
2022/06/17 02:12:41;;;;;;;3.53;0.88;;;18.40;67.20;;;;;;4994999;28;20026;-78
2022/06/17 02:15:08;;;;;;;2.40;1.00;;;18.40;67.20;;;;;;5003953;28;20451;-79
2022/06/17 02:17:41;;;;;;;4.07;0.90;;;18.40;67.60;;;;;;5003398;28;20113;-78
2022/06/17 02:20:09;;;;;;;1.83;1.05;;;18.40;68.10;;;;;;4996406;28;20463;-79
2022/06/17 02:22:36;;;;;;;1.30;0.73;;;18.40;68.00;;;;;;5006974;28;20030;-79
2022/06/17 02:25:06;;;;;;;1.88;1.10;;;18.30;68.30;;;;;;4997802;28;20079;-79
2022/06/17 02:27:34;;;;;;;1.00;0.90;;;18.20;69.40;;;;;;5001611;28;20029;-78
2022/06/17 02:30:00;;;;;;;1.52;1.02;;;18.10;69.80;;;;;;5006237;28;20036;-80
2022/06/17 02:32:29;;;;;;;4.15;1.10;;;18.00;69.70;;;;;;4996670;28;20030;-81
2022/06/17 02:34:58;;;;;;;1.95;1.00;;;18.00;70.30;;;;;;5004174;28;20483;-80
2022/06/17 02:37:25;;;;;;;1.80;1.10;;;18.10;70.40;;;;;;5002016;28;20066;-80
2022/06/17 02:39:55;;;;;;;3.88;0.98;;;18.10;70.40;;;;;;5005724;28;20030;-79
2022/06/17 02:42:24;;;;;;;1.10;1.00;;;18.00;71.10;;;;;;4995332;28;20027;-80
2022/06/17 02:44:56;;;;;;;1.83;0.80;;;17.90;71.90;;;;;;5011685;28;20036;-78
2022/06/17 02:47:25;;;;;;;2.72;1.00;;;17.90;72.60;;;;;;5013246;28;20116;-78
2022/06/17 02:49:51;;;;;;;2.67;0.80;;;18.00;72.60;;;;;;5014831;28;20033;-78
2022/06/17 02:52:23;;;;;;;4.85;1.88;;;17.90;72.00;;;;;;5016573;28;20041;-78
2022/06/17 02:54:56;;;;;;;2.22;1.30;;;17.90;72.40;;;;;;5014805;28;20034;-78
2022/06/17 02:57:25;;;;;;;3.22;1.10;;;17.90;72.10;;;;;;5016550;28;20065;-78
2022/06/17 03:00:09;;;;;;;2.53;1.05;;;17.90;73.00;;;;;;5014412;28;20045;-78
2022/06/17 03:02:38;;;;;;;1.88;1.10;;;17.80;73.40;;;;;;5015012;28;20072;-78
2022/06/17 03:05:15;;;;;;;2.40;1.00;;;17.80;73.40;;;;;;5014927;28;20018;-78
2022/06/17 03:07:41;;;;;;;1.83;1.10;;;17.80;73.00;;;;;;5014493;28;20054;-78
2022/06/17 03:10:15;;;;;;;1.35;0.93;;;17.70;73.70;;;;;;5004139;28;20037;-78
2022/06/17 03:12:44;;;;;;;2.60;1.30;;;17.70;73.80;;;;;;5004579;28;20030;-78
2022/06/17 03:15:13;;;;;;;1.77;1.02;;;17.70;73.80;;;;;;5004762;28;20471;-78
2022/06/17 03:17:41;;;;;;;2.72;1.00;;;17.70;73.80;;;;;;5003157;28;20018;-78
2022/06/17 03:20:11;;;;;;;2.90;1.10;;;17.70;73.90;;;;;;5007847;28;20030;-78
2022/06/17 03:22:37;;;;;;;1.50;1.10;;;17.60;74.50;;;;;;5002284;28;20049;-78
2022/06/17 03:25:11;;;;;;;1.48;1.17;;;17.60;74.50;;;;;;5006327;28;20026;-78
2022/06/17 03:27:40;;;;;;;1.48;0.90;;;17.60;74.80;;;;;;5010746;28;20038;-79
2022/06/17 03:30:07;;;;;;;2.72;1.23;;;17.60;74.40;;;;;;5011366;28;20134;-79
2022/06/17 03:32:44;;;;;;;2.67;1.20;;;17.50;74.50;;;;;;5003974;28;20475;-80
2022/06/17 03:35:22;;;;;;;2.25;1.30;;;17.50;74.60;;;;;;5010646;28;20037;-80
2022/06/17 03:38:00;;;;;;;4.55;1.30;;;17.50;74.70;;;;;;5006787;28;20037;-80
2022/06/17 03:40:30;;;;;;;3.40;1.25;;;17.50;74.80;;;;;;5007158;28;20034;-80
2022/06/17 03:43:05;;;;;;;2.03;1.52;;;17.50;74.90;;;;;;5012398;28;20092;-80
2022/06/17 03:45:44;;;;;;;1.58;1.30;;;17.50;75.00;;;;;;5009943;28;20049;-80
2022/06/17 03:48:54;;;;;;;1.63;1.38;;;17.50;75.60;;;;;;4996368;28;20081;-80
2022/06/17 03:51:21;;;;;;;3.65;1.27;;;17.40;75.80;;;;;;4972963;28;20073;-78
2022/06/17 03:53:48;;;;;;;2.08;1.10;;;17.40;75.20;;;;;;4994301;28;20054;-79
2022/06/17 03:56:27;;;;;;;1.83;1.25;;;17.50;75.20;;;;;;4995857;28;20361;-78
2022/06/17 03:58:56;;;;;;;6.55;1.42;;;17.50;74.60;;;;;;4994369;28;20030;-79
2022/06/17 04:01:29;;;;;;;4.28;1.35;;;17.50;74.70;;;;;;4993985;28;20467;-79
2022/06/17 04:03:58;;;;;;;3.35;1.30;;;17.50;75.60;;;;;;4995441;28;20037;-79
2022/06/17 04:06:28;;;;;;;2.40;1.00;;;17.50;75.50;;;;;;4995582;28;20088;-80
2022/06/17 04:09:03;;;;;;;2.10;1.10;;;17.50;75.60;;;;;;4993969;28;20141;-79
2022/06/17 04:11:39;;;;;;;3.17;1.10;;;17.50;75.10;;;;;;4994955;28;20033;-80
2022/06/17 04:14:34;;;;;;;3.53;1.13;;;17.60;74.90;;;;;;4995879;28;20027;-80
2022/06/17 04:17:04;;;;;;;2.53;1.10;;;17.50;75.90;;;;;;4985099;28;20085;-80
2022/06/17 04:19:31;;;;;;;2.90;0.90;;;17.40;76.70;;;;;;4995828;28;20026;-81
2022/06/17 04:22:19;;;;;;;2.05;1.00;;;17.40;76.60;;;;;;4995095;28;20061;-80
2022/06/17 04:24:53;;;;;;;3.45;1.20;;;17.40;76.60;;;;;;4995142;28;20031;-80
2022/06/17 04:27:20;;;;;;;2.45;1.20;;;17.30;77.20;;;;;;4995208;28;20052;-79
2022/06/17 04:29:51;;;;;;;2.30;1.10;;;17.30;77.10;;;;;;4993416;28;20030;-80
2022/06/17 04:32:32;;;;;;;3.08;1.35;;;17.40;77.40;;;;;;4995288;28;20038;-80
2022/06/17 04:34:58;;;;;;;2.38;1.02;;;17.40;77.50;;;;;;4994871;28;20034;-80
2022/06/17 04:37:24;;;;;;;2.88;1.42;;;17.40;77.40;;;;;;4994032;28;20030;-79
2022/06/17 04:39:58;;;;;;;1.88;1.27;;;17.40;77.60;;;;;;4993830;28;20030;-80
2022/06/17 04:42:51;;;;;;;3.13;1.17;;;17.40;78.10;;;;;;4994749;28;20022;-80
2022/06/17 04:45:28;;;;;;;3.03;1.20;;;17.30;78.90;;;;;;4991969;28;20046;-80
2022/06/17 04:47:55;;;;;;;4.07;1.38;;;17.30;78.90;;;;;;4994536;28;20425;-80
2022/06/17 04:50:24;;;;;;;5.18;1.20;;;17.30;78.80;;;;;;4993824;28;20117;-80
2022/06/17 04:52:51;;;;;;;3.28;1.30;;;17.30;79.40;;;;;;4994146;28;20027;-80
2022/06/17 04:55:36;;;;;;;1.75;1.10;;;17.30;79.60;;;;;;4994875;28;20033;-79
2022/06/17 04:58:02;;;;;;;4.22;1.02;;;17.30;79.70;;;;;;4994614;28;20487;-79
2022/06/17 05:00:28;;;;;;;3.22;1.42;;;17.40;80.10;;;;;;4993657;28;20031;-80
2022/06/17 05:02:54;;;;;;;3.05;1.20;;;17.40;80.00;;;;;;4994212;28;20027;-80
2022/06/17 05:05:39;;;;;;;5.13;1.48;;;17.50;80.00;;;;;;4993629;28;20085;-79
2022/06/17 05:08:18;;;;;;;2.72;1.33;;;17.60;79.50;;;;;;4994285;28;20059;-80
2022/06/17 05:10:49;;;;;;;4.65;1.08;;;17.60;79.40;;;;;;4992857;28;20097;-79
2022/06/17 05:13:25;;;;;;;1.85;1.00;;;17.70;79.00;;;;;;4992733;28;20088;-80
2022/06/17 05:15:51;;;;;;;3.08;1.20;;;17.70;78.60;;;;;;4994002;28;20034;-79
2022/06/17 05:18:17;;;;;;;3.35;1.48;;;17.70;78.70;;;;;;4993230;28;20036;-79
2022/06/17 05:20:44;;;;;;;1.92;1.23;;;17.80;79.00;;;;;;4993510;28;20026;-80
2022/06/17 05:23:14;;;;;;;3.22;1.30;;;17.80;78.70;;;;;;4994180;28;20105;-80
2022/06/17 05:25:42;;;;;;;1.85;1.20;;;17.90;78.80;;;;;;4992446;28;20480;-80
2022/06/17 05:28:12;;;;;;;2.22;1.02;;;17.90;79.00;;;;;;4993036;28;20110;-78
2022/06/17 05:30:40;;;;;;;4.65;1.35;;;18.00;78.60;;;;;;4993352;28;20038;-78
2022/06/17 05:33:06;;;;;;;1.70;1.08;;;18.10;78.50;;;;;;4992985;28;20496;-79
2022/06/17 05:35:32;;;;;;;4.22;1.10;;;18.10;78.80;;;;;;4993145;28;20476;-79
2022/06/17 05:37:58;;;;;;;2.10;0.85;;;18.20;79.70;;;;;;4993962;28;20045;-79
2022/06/17 05:40:26;;;;;;;2.63;1.40;;;18.20;79.20;;;;;;4993217;28;20034;-79
2022/06/17 05:42:52;;;;;;;3.78;1.33;;;18.30;79.40;;;;;;4992394;28;20461;-80
2022/06/17 05:45:23;;;;;;;2.08;1.00;;;18.40;79.10;;;;;;4992951;28;20037;-80
2022/06/17 05:47:49;;;;;;;2.97;1.02;;;18.50;78.00;;;;;;4992711;28;20026;-80
2022/06/17 05:50:16;;;;;;;3.70;1.00;;;18.50;78.00;;;;;;4993226;28;20169;-80
2022/06/17 05:52:52;;;;;;;2.67;1.00;;;18.70;78.00;;;;;;4993964;28;20133;-80
2022/06/17 05:55:19;;;;;;;1.92;0.90;;;18.80;78.10;;;;;;4994115;28;20026;-81
2022/06/17 05:57:44;;;;;;;2.10;1.05;;;18.80;77.00;;;;;;4992702;28;20027;-80
2022/06/17 06:00:11;;;;;;;2.05;1.10;;;18.90;76.70;;;;;;4993379;28;20030;-79
2022/06/17 06:02:37;;;;;;;2.53;1.13;;;18.90;75.90;;;;;;5012101;28;20026;-79
2022/06/17 06:05:04;;;;;;;4.18;1.63;;;19.00;76.30;;;;;;5001561;28;20030;-79
2022/06/17 06:07:30;;;;;;;2.28;1.40;;;19.00;76.10;;;;;;5000905;28;20050;-78
2022/06/17 06:09:55;;;;;;;1.95;1.20;;;19.10;76.10;;;;;;4997496;28;20124;-78
2022/06/17 06:12:21;;;;;;;2.58;1.30;;;19.10;76.10;;;;;;5008788;28;20018;-78
2022/06/17 06:14:47;;;;;;;3.10;1.20;;;19.20;75.70;;;;;;5008613;28;20539;-78
2022/06/17 06:17:12;;;;;;;1.60;1.00;;;19.20;75.70;;;;;;5010084;28;20471;-77
2022/06/17 06:19:38;;;;;;;1.70;1.08;;;19.30;74.00;;;;;;5011374;28;20018;-77
2022/06/17 06:22:04;;;;;;;2.10;1.00;;;19.40;73.80;;;;;;5027621;28;20026;-80
2022/06/17 06:24:29;;;;;;;2.17;1.50;;;19.40;72.60;;;;;;5005600;28;20033;-79
2022/06/17 06:26:55;;;;;;;2.67;1.10;;;19.50;72.50;;;;;;4999842;28;20034;-79
2022/06/17 06:29:21;;;;;;;2.85;1.10;;;19.60;72.80;;;;;;4996602;28;20037;-77
2022/06/17 06:31:48;;;;;;;4.00;0.77;;;19.60;71.80;;;;;;5008912;28;20026;-77
2022/06/17 06:34:16;;;;;;;2.15;1.40;;;19.70;72.10;;;;;;5004516;28;20033;-79
2022/06/17 06:36:42;;;;;;;2.35;1.00;;;19.70;72.60;;;;;;5004792;28;20025;-80
2022/06/17 06:39:08;;;;;;;4.00;0.90;;;19.80;72.80;;;;;;5007741;28;20502;-79
2022/06/17 06:41:34;;;;;;;2.72;0.93;;;19.80;72.50;;;;;;5006201;28;20088;-78
2022/06/17 06:44:00;;;;;;;1.65;0.70;;;19.90;72.30;;;;;;5003050;28;20452;-78
2022/06/17 06:46:26;;;;;;;2.95;0.90;;;19.90;71.40;;;;;;5007358;28;20030;-78
2022/06/17 06:48:51;;;;;;;1.90;0.82;;;20.00;71.10;;;;;;5002873;28;20081;-78
2022/06/17 06:51:19;;;;;;;2.08;0.70;;;20.00;71.30;;;;;;5005873;28;20026;-78
2022/06/17 06:53:45;;;;;;;1.73;0.80;;;20.10;71.40;;;;;;5003123;28;20050;-79
2022/06/17 06:56:11;;;;;;;3.95;0.93;;;20.10;70.40;;;;;;5004180;28;20030;-79
2022/06/17 06:58:37;;;;;;;0.98;0.70;;;20.20;70.50;;;;;;5007532;28;20101;-79
2022/06/17 07:01:02;;;;;;;0.85;0.70;;;20.20;69.90;;;;;;5008262;28;20057;-78
2022/06/17 07:03:29;;;;;;;2.20;1.00;;;20.30;69.80;;;;;;5016160;28;20030;-77
2022/06/17 07:05:57;;;;;;;1.15;0.85;;;20.30;70.00;;;;;;5014306;28;20538;-78
2022/06/17 07:08:25;;;;;;;2.42;0.80;;;20.30;70.00;;;;;;5014738;28;20045;-78
2022/06/17 07:10:52;;;;;;;1.35;0.70;;;20.40;69.70;;;;;;5008427;28;20037;-79
2022/06/17 07:13:21;;;;;;;1.77;0.80;;;20.40;70.50;;;;;;4995800;28;20030;-79
2022/06/17 07:15:47;;;;;;;3.53;0.80;;;20.40;70.40;;;;;;4995014;28;20034;-78
2022/06/17 07:18:18;;;;;;;1.17;0.60;;;20.50;70.30;;;;;;4995613;28;20022;-79
2022/06/17 07:20:46;;;;;;;2.47;0.70;;;20.50;70.00;;;;;;4999856;28;20033;-79
2022/06/17 07:23:18;;;;;;;2.13;0.70;;;20.60;69.80;;;;;;5016060;28;20030;-79
2022/06/17 07:25:44;;;;;;;1.92;0.98;;;20.70;69.90;;;;;;5014182;28;20037;-79
2022/06/17 07:28:15;;;;;;;1.80;0.65;;;20.70;69.90;;;;;;5015918;28;20415;-79
2022/06/17 07:30:44;;;;;;;1.38;0.68;;;20.70;70.20;;;;;;5012409;28;20726;-78
2022/06/17 07:33:11;;;;;;;2.05;0.85;;;20.80;69.90;;;;;;4996205;28;20068;-78
2022/06/17 07:35:37;;;;;;;1.10;0.90;;;20.90;70.00;;;;;;4996401;28;20030;-77
2022/06/17 07:40:50;;;;;;;1.35;0.85;;;20.90;69.70;;;;;;5003434;28;20391;-79
2022/06/17 07:43:16;;;;;;;2.28;0.70;;;21.00;69.40;;;;;;5005236;28;20030;-78
2022/06/17 07:45:42;;;;;;;1.55;0.95;;;21.00;69.10;;;;;;5004274;28;20144;-78
2022/06/17 07:48:12;;;;;;;1.70;1.00;;;21.10;69.50;;;;;;5006434;28;20034;-77
2022/06/17 07:50:38;;;;;;;1.73;0.63;;;21.10;69.30;;;;;;5006670;28;20037;-78
2022/06/17 07:53:04;;;;;;;1.58;0.68;;;21.20;68.60;;;;;;5005409;28;20217;-78
2022/06/17 07:55:29;;;;;;;1.63;0.65;;;21.30;68.70;;;;;;5004600;28;20033;-77
2022/06/17 07:57:55;;;;;;;2.33;0.60;;;21.40;68.50;;;;;;5004225;28;20029;-77
2022/06/17 08:00:24;;;;;;;1.40;1.00;;;21.50;69.20;;;;;;5004079;28;20474;-77
2022/06/17 08:02:51;;;;;;;3.20;0.73;;;21.50;68.90;;;;;;5005276;28;20049;-78
2022/06/17 08:05:17;;;;;;;1.25;0.73;;;21.60;68.90;;;;;;5000845;28;20022;-83
2022/06/17 08:07:43;;;;;;;1.95;0.93;;;21.80;69.00;;;;;;5010622;28;20053;-87
2022/06/17 08:10:13;;;;;;;2.03;1.00;;;21.80;68.20;;;;;;4996379;28;20058;-85
2022/06/17 08:12:39;;;;;;;1.23;0.70;;;21.90;68.00;;;;;;5002639;28;20387;-84
2022/06/17 08:15:05;;;;;;;1.80;0.80;;;22.00;68.40;;;;;;5010668;28;20036;-85
2022/06/17 08:17:31;;;;;;;1.65;0.70;;;22.10;67.80;;;;;;5001317;28;20030;-85
2022/06/17 08:19:58;;;;;;;2.85;0.93;;;22.30;68.30;;;;;;5008568;28;20426;-87
2022/06/17 08:22:25;;;;;;;1.80;1.10;;;22.40;67.40;;;;;;5002471;28;20026;-87
2022/06/17 08:24:56;;;;;;;2.38;0.88;;;22.40;66.90;;;;;;5006301;28;20032;-86
2022/06/17 08:27:22;;;;;;;0.98;0.90;;;22.50;66.90;;;;;;5009046;28;20125;-86
2022/06/17 08:29:47;;;;;;;1.30;0.82;;;22.50;66.80;;;;;;5001307;28;20128;-87
2022/06/17 08:34:58;;;;;;;2.13;0.88;;;22.40;66.40;;;;;;5002583;28;20037;-84
2022/06/17 08:37:24;;;;;;;3.70;1.00;;;22.40;66.60;;;;;;5005704;28;20034;-83
2022/06/17 08:39:51;;;;;;;4.53;0.90;;;22.40;66.30;;;;;;5013751;28;20088;-83
2022/06/17 08:42:53;;;;;;;2.53;0.90;;;22.40;66.70;;;;;;4998522;28;20369;-83
2022/06/17 08:45:33;;;;;;;1.00;0.75;;;22.50;67.50;;;;;;5013445;28;20494;-83
2022/06/17 08:48:13;;;;;;;4.38;1.10;;;22.50;66.50;;;;;;4997870;28;20030;-83
2022/06/17 08:50:57;;;;;;;2.40;1.05;;;22.50;65.80;;;;;;5006286;28;20076;-83
2022/06/17 08:53:51;;;;;;;3.13;1.13;;;22.40;65.40;;;;;;5006818;28;20034;-83
2022/06/17 08:56:39;;;;;;;3.38;0.98;;;22.40;66.00;;;;;;4997213;28;20045;-87
2022/06/17 08:59:20;;;;;;;3.00;1.00;;;22.50;65.00;;;;;;5002640;28;20090;-87
2022/06/17 09:01:52;;;;;;;1.48;0.80;;;22.50;65.10;;;;;;5010688;28;20456;-88
2022/06/17 09:04:46;;;;;;;1.77;1.00;;;22.60;65.10;;;;;;5002046;28;20118;-90
2022/06/17 09:07:30;;;;;;;4.07;1.10;;;22.50;64.90;;;;;;5024089;28;20038;-85
2022/06/17 09:10:26;;;;;;;1.70;0.90;;;22.60;65.80;;;;;;5003632;28;20026;-87
2022/06/17 09:13:01;;;;;;;1.85;0.88;;;22.60;66.10;;;;;;5003288;28;20030;-85
2022/06/17 09:15:38;;;;;;;2.90;1.27;;;22.60;65.80;;;;;;5004046;28;20033;-89
2022/06/17 09:18:13;;;;;;;1.63;1.00;;;22.70;66.90;;;;;;5002681;28;20019;-85
2022/06/17 09:20:42;;;;;;;2.05;1.00;;;22.80;66.00;;;;;;4999120;28;20045;-84
2022/06/17 09:23:11;;;;;;;2.83;0.95;;;22.80;64.80;;;;;;5001575;28;20049;-80
2022/06/17 09:25:45;;;;;;;1.95;0.80;;;22.80;64.70;;;;;;5003684;28;20034;-80
2022/06/17 09:28:26;;;;;;;1.02;0.90;;;22.70;64.20;;;;;;4999549;28;20034;-81
2022/06/17 09:31:16;;;;;;;2.05;1.23;;;22.80;65.30;;;;;;4999089;28;20126;-80
2022/06/17 09:33:57;;;;;;;1.60;0.90;;;22.90;65.20;;;;;;5008424;28;20022;-82
2022/06/17 09:36:34;;;;;;;2.78;0.80;;;23.00;66.20;;;;;;5002655;28;20396;-81
2022/06/17 09:39:06;;;;;;;2.15;0.90;;;23.00;65.00;;;;;;5001634;28;20144;-79
2022/06/17 09:41:45;;;;;;;1.02;0.80;;;23.00;64.70;;;;;;4998703;28;20019;-81
2022/06/17 09:44:34;;;;;;;1.02;0.80;;;23.20;63.60;;;;;;5001328;28;20022;-81
2022/06/17 09:47:13;;;;;;;1.63;0.80;;;23.20;61.80;;;;;;5002051;28;20402;-81
2022/06/17 09:49:52;;;;;;;1.05;0.65;;;23.30;61.80;;;;;;5002757;28;20517;-81
2022/06/17 09:52:35;;;;;;;3.28;1.00;;;23.40;62.20;;;;;;5002614;28;20029;-83
2022/06/17 09:55:16;;;;;;;1.42;0.85;;;23.60;62.30;;;;;;5001098;28;20022;-82
2022/06/17 09:57:58;;;;;;;1.33;0.77;;;23.60;61.60;;;;;;5008208;28;20041;-82
2022/06/17 10:00:30;;;;;;;1.00;0.80;;;23.70;62.10;;;;;;5007804;28;20482;-81
2022/06/17 10:03:12;;;;;;;1.95;1.10;;;23.70;62.20;;;;;;5005870;28;20023;-80
2022/06/17 10:06:12;;;;;;;1.30;0.82;;;23.80;62.50;;;;;;5011606;28;20038;-82
2022/06/17 10:09:14;;;;;;;1.05;0.82;;;23.80;60.00;;;;;;5007919;28;20080;-82
2022/06/17 10:11:52;;;;;;;1.30;0.82;;;23.90;59.00;;;;;;5014642;28;20022;-81
2022/06/17 10:14:53;;;;;;;1.85;0.80;;;23.80;58.80;;;;;;5005363;28;20113;-83
2022/06/17 10:20:41;;;;;;;1.65;1.00;;;23.80;61.10;;;;;;5006449;28;20472;-81
2022/06/17 10:23:22;;;;;;;1.48;0.90;;;23.90;60.30;;;;;;5007610;28;20069;-81
2022/06/17 10:26:00;;;;;;;1.05;0.90;;;23.90;58.80;;;;;;5008448;28;20037;-83
2022/06/17 10:28:25;;;;;;;1.10;0.80;;;23.90;58.60;;;;;;5011674;28;20033;-82
2022/06/17 10:31:28;;;;;;;0.73;0.73;;;24.00;59.60;;;;;;5004269;28;20082;-86
2022/06/17 10:33:56;;;;;;;2.25;0.88;;;24.00;59.30;;;;;;5018339;28;20121;-88
2022/06/17 10:36:22;;;;;;;1.25;0.82;;;24.10;59.90;;;;;;5001234;28;20088;-87
2022/06/17 10:38:48;;;;;;;2.00;0.90;;;24.10;58.50;;;;;;5003533;28;20388;-86
2022/06/17 10:41:15;;;;;;;2.40;0.95;;;24.10;57.90;;;;;;5005407;28;20018;-86
2022/06/17 10:43:47;;;;;;;2.40;0.85;;;24.10;57.60;;;;;;5005581;28;20022;-87
2022/06/17 10:46:23;;;;;;;1.05;0.70;;;24.10;56.80;;;;;;5008816;28;20026;-87
2022/06/17 10:49:20;;;;;;;1.10;0.80;;;24.20;57.30;;;;;;5006524;28;20149;-82
2022/06/17 10:51:48;;;;;;;3.03;0.88;;;24.30;57.40;;;;;;5009789;28;20022;-88
2022/06/17 10:54:26;;;;;;;3.03;0.95;;;24.40;57.70;;;;;;5005400;28;20474;-85
2022/06/17 10:57:21;;;;;;;1.00;0.70;;;24.50;56.80;;;;;;5010281;28;20117;-79
2022/06/17 10:59:47;;;;;;;1.27;0.80;;;24.50;56.30;;;;;;5013871;28;20053;-88
2022/06/17 11:02:33;;;;;;;1.40;0.75;;;24.60;57.80;;;;;;5004529;28;20019;-81
2022/06/17 11:05:04;;;;;;;1.27;0.98;;;24.70;57.70;;;;;;5009749;28;20467;-81
2022/06/17 11:07:51;;;;;;;1.35;0.57;;;24.70;56.60;;;;;;5002066;28;20089;-83
2022/06/17 11:10:19;;;;;;;2.13;0.90;;;24.90;58.20;;;;;;4998084;28;20116;-83
2022/06/17 11:12:54;;;;;;;1.85;0.75;;;24.90;56.80;;;;;;5007027;28;20027;-83
2022/06/17 11:15:33;;;;;;;1.50;0.65;;;24.90;55.00;;;;;;5007169;28;20475;-88
2022/06/17 11:18:04;;;;;;;1.33;0.70;;;24.90;54.00;;;;;;5015421;28;20022;-89
2022/06/17 11:20:33;;;;;;;0.68;0.55;;;24.90;55.00;;;;;;4995848;28;20030;-88
2022/06/17 11:23:07;;;;;;;1.17;0.65;;;25.00;53.40;;;;;;5004058;28;20482;-86
2022/06/17 11:25:35;;;;;;;0.40;0.40;;;25.10;53.90;;;;;;5014754;28;20053;-86
2022/06/17 11:28:24;;;;;;;1.73;0.50;;;25.20;52.00;;;;;;4998155;28;20077;-87
2022/06/17 11:31:04;;;;;;;1.90;0.60;;;25.20;50.10;;;;;;5014892;28;20030;-87
2022/06/17 11:33:36;;;;;;;1.80;0.50;;;25.20;50.40;;;;;;5001114;28;20527;-83
2022/06/17 11:36:14;;;;;;;2.05;0.70;;;25.30;51.60;;;;;;5010240;28;20037;-84
2022/06/17 11:38:40;;;;;;;1.98;0.60;;;25.40;52.40;;;;;;4994742;28;20479;-85
2022/06/17 11:41:06;;;;;;;1.25;0.47;;;25.50;53.30;;;;;;5004608;28;20033;-85
2022/06/17 11:43:35;;;;;;;0.98;0.52;;;25.60;52.30;;;;;;5000229;28;20022;-86
2022/06/17 11:46:35;;;;;;;1.30;0.50;;;25.70;52.50;;;;;;5010372;28;20112;-85
2022/06/17 11:49:15;;;;;;;3.50;0.70;;;25.80;51.30;;;;;;4995169;28;20037;-83
2022/06/17 11:52:03;;;;;;;3.63;0.73;;;25.90;52.70;;;;;;5000011;28;20042;-84
2022/06/17 11:54:33;;;;;;;0.75;0.50;;;26.00;51.60;;;;;;4990569;28;20503;-85
2022/06/17 11:57:13;;;;;;;1.30;0.70;;;26.20;52.90;;;;;;5005113;28;20034;-84
2022/06/17 11:59:45;;;;;;;1.75;0.70;;;26.20;52.60;;;;;;5009686;28;20114;-86
2022/06/17 12:02:12;;;;;;;1.23;0.40;;;26.10;51.40;;;;;;5011942;28;20463;-84
2022/06/17 12:04:46;;;;;;;1.65;0.50;;;26.10;49.10;;;;;;5030223;28;20068;-83
2022/06/17 12:07:44;;;;;;;1.00;0.57;;;26.10;49.30;;;;;;4996766;28;20407;-87
2022/06/17 12:10:32;;;;;;;0.98;0.38;;;26.30;48.60;;;;;;5002839;28;20107;-84
2022/06/17 12:13:14;;;;;;;0.55;0.50;;;26.40;50.40;;;;;;5009654;28;20391;-82
2022/06/17 12:15:50;;;;;;;0.80;0.52;;;26.50;51.00;;;;;;5002809;28;20092;-77
2022/06/17 12:18:19;;;;;;;79.82;42.53;;;26.60;51.60;;;;;;5011247;28;20033;-86
2022/06/17 12:21:00;;;;;;;103.22;60.60;;;26.60;51.10;;;;;;5005224;28;20026;-86
2022/06/17 12:23:39;;;;;;;15.40;9.18;;;26.70;51.30;;;;;;5007714;28;20026;-93
2022/06/17 12:26:22;;;;;;;3.85;3.00;;;26.60;48.10;;;;;;5007519;28;20038;-90
2022/06/17 12:29:13;;;;;;;1.98;1.27;;;26.60;48.10;;;;;;5017096;28;20030;-90
2022/06/17 12:31:44;;;;;;;2.97;0.90;;;26.60;47.40;;;;;;5028957;28;20029;-90
2022/06/17 12:34:12;;;;;;;;;;;26.80;49.20;;;;;;5018874;28;20358;-92
2022/06/17 12:36:46;;;;;;;1.90;0.60;;;26.80;47.70;;;;;;5002553;28;19955;-90
2022/06/17 12:39:32;;;;;;;4.28;0.57;;;26.80;46.00;;;;;;5002701;28;20271;-88
2022/06/17 12:42:28;;;;;;;0.38;0.30;;;26.90;46.30;;;;;;5017217;28;20034;-89
2022/06/17 12:45:13;;;;;;;1.00;0.40;;;27.00;47.10;;;;;;5013175;28;20467;-85
2022/06/17 12:48:03;;;;;;;0.40;0.40;;;27.20;47.30;;;;;;5023387;28;20094;-86
2022/06/17 12:53:50;;;;;;;0.45;0.30;;;27.30;46.40;;;;;;5006378;28;20034;-92
2022/06/17 12:56:39;;;;;;;1.00;0.50;;;27.40;45.60;;;;;;5003145;28;20025;-86
2022/06/17 12:59:39;;;;;;;1.00;0.40;;;27.60;46.70;;;;;;5000769;28;20034;-87
2022/06/17 13:02:07;;;;;;;1.20;0.43;;;27.70;44.70;;;;;;5002044;28;20026;-86
2022/06/17 13:05:02;;;;;;;0.65;0.40;;;27.90;45.30;;;;;;4999734;28;20026;-89
2022/06/17 13:07:48;;;;;;;0.82;0.35;;;28.00;43.10;;;;;;5007098;28;20053;-90
2022/06/17 13:10:42;;;;;;;0.30;0.20;;;28.20;44.10;;;;;;5009165;28;20022;-88
2022/06/17 13:13:07;;;;;;;0.50;0.38;;;28.40;44.00;;;;;;5003912;28;20030;-90
2022/06/17 13:15:42;;;;;;;0.40;0.40;;;28.60;44.00;;;;;;4999672;28;20030;-94
2022/06/17 13:18:14;;;;;;;0.50;0.50;;;28.80;44.00;;;;;;5009649;28;20034;-96
2022/06/17 13:21:05;;;;;;;0.98;0.43;;;29.00;44.50;;;;;;4993744;28;20534;-93
2022/06/17 13:24:00;;;;;;;0.63;0.30;;;29.30;43.20;;;;;;4999310;28;20026;-91
2022/06/17 13:26:35;;;;;;;0.40;0.40;;;29.50;43.10;;;;;;5002881;28;20037;-91
2022/06/17 13:29:12;;;;;;;2.25;0.40;;;29.70;42.30;;;;;;5003161;28;20169;-87
2022/06/17 13:31:55;;;;;;;1.17;0.30;;;29.90;41.50;;;;;;5003247;28;20030;-91
2022/06/17 13:34:32;;;;;;;0.32;0.30;;;30.30;41.30;;;;;;4998985;28;20077;-88